Vidfoss — V2QK4 — position and weather

sailwx.info

Track history (hours):
 
Tides and Currents Weather Stations Pressure Air Temp Water Temp Dewpoint Dewpoint Depression Visibility Wind Speed Wind Dir Waves Ship Positions

Vidfoss

Last reported at 2016-May-03 19:33 UTC. Time now 2016-May-04 19:19 UTC.
Position N 69°06' E 017°31'.

Length 93 m; draft 4.4 m.

Type: Cargo ship. MMSI: 305846000.

Date/timePositionNaut miles runAvg speedWind from/ knotsBaromVisibWave heightAir tempDewpointWater temp
2016-May-03 19:33N 69°06' E 017°31'1212.0
2016-May-03 18:34N 69°11' E 018°01'  
2016-Apr-28 03:31N 69°17' E 017°58'9 9.3
2016-Apr-28 02:33N 69°09' E 017°47'110 6.9
2016-Apr-27 10:33N 67°48' E 014°23'2412.0
2016-Apr-27 08:33N 67°24' E 014°26'1212.1
2016-Apr-27 07:33N 67°14' E 014°10'1312.3
2016-Apr-27 06:32N 67°03' E 013°52'1210.9
2016-Apr-27 05:27N 66°55' E 013°30'11711.6
2016-Apr-26 19:25N 65°06' E 011°48'1011.7
2016-Apr-26 18:33N 64°58' E 011°33'1211.7
2016-Apr-26 17:33N 64°51' E 011°12'5911.7
2016-Apr-26 12:31N 64°03' E 009°51'1111.3
2016-Apr-26 11:33N 63°53' E 009°44'1211.9
2016-Apr-26 10:33N 63°43' E 009°31'1211.3
2016-Apr-26 09:30N 63°33' E 009°17'246 8.0
2016-Apr-25 02:33N 59°50' E 005°33'1111.2
2016-Apr-25 01:33N 59°40' E 005°23'2710.7
2016-Apr-24 23:04N 59°14' E 005°21'612.5
2016-Apr-24 22:34N 59°07' E 005°21'1111.2
2016-Apr-24 21:33N 58°58' E 005°10'1111.3
2016-Apr-24 20:34N 58°48' E 005°01'  
Track history (hours):
 
Tides and Currents Weather Stations Pressure Air Temp Water Temp Dewpoint Dewpoint Depression Visibility Wind Speed Wind Dir Waves Ship Positions

Vidfoss

Last reported at 2016-May-03 19:33 UTC. Time now 2016-May-04 19:19 UTC.
Position N 69°06' E 017°31'.

Length 93 m; draft 4.4 m.

Type: Cargo ship. MMSI: 305846000.

Date/timePositionNaut miles runAvg speedWind from/ knotsBaromVisibWave heightAir tempDewpointWater temp
2016-May-03 19:33N 69°06' E 017°31'1212.0
2016-May-03 18:34N 69°11' E 018°01'  
2016-Apr-28 03:31N 69°17' E 017°58'9 9.3
2016-Apr-28 02:33N 69°09' E 017°47'110 6.9
2016-Apr-27 10:33N 67°48' E 014°23'2412.0
2016-Apr-27 08:33N 67°24' E 014°26'1212.1
2016-Apr-27 07:33N 67°14' E 014°10'1312.3
2016-Apr-27 06:32N 67°03' E 013°52'1210.9
2016-Apr-27 05:27N 66°55' E 013°30'11711.6
2016-Apr-26 19:25N 65°06' E 011°48'1011.7
2016-Apr-26 18:33N 64°58' E 011°33'1211.7
2016-Apr-26 17:33N 64°51' E 011°12'5911.7
2016-Apr-26 12:31N 64°03' E 009°51'1111.3
2016-Apr-26 11:33N 63°53' E 009°44'1211.9
2016-Apr-26 10:33N 63°43' E 009°31'1211.3
2016-Apr-26 09:30N 63°33' E 009°17'246 8.0
2016-Apr-25 02:33N 59°50' E 005°33'1111.2
2016-Apr-25 01:33N 59°40' E 005°23'2710.7
2016-Apr-24 23:04N 59°14' E 005°21'612.5
2016-Apr-24 22:34N 59°07' E 005°21'1111.2
2016-Apr-24 21:33N 58°58' E 005°10'1111.3
2016-Apr-24 20:34N 58°48' E 005°01'  

Dump ship's entire track history